Time;durP1;ratioP1;P1;durP2;ratioP2;P2;SDS_P1;SDS_P2;PMS_P1;PMS_P2;Temp;Humidity;BMP_temperature;BMP_pressure;BME280_temperature;BME280_humidity;BME280_pressure;Samples;Min_cycle;Max_cycle;Signal;HPM_P1;HPM_P2
2024/05/06 00:02:24;;;;;;;;;;;6.30;99.90;;;;;;5506708;25;19939;-65
2024/05/06 00:04:50;;;;;;;;;;;6.20;99.90;;;;;;5515290;26;19995;-64
2024/05/06 00:07:15;;;;;;;;;;;6.10;99.90;;;;;;5520109;26;19935;-64
2024/05/06 00:09:41;;;;;;;;;;;6.10;99.90;;;;;;5514010;25;20445;-65
2024/05/06 00:12:06;;;;;;;;;;;6.00;99.90;;;;;;5513331;26;20332;-64
2024/05/06 00:14:32;;;;;;;;;;;6.00;99.90;;;;;;5517964;26;19994;-65
2024/05/06 00:16:58;;;;;;;;;;;6.00;99.90;;;;;;5512097;26;20007;-65
2024/05/06 00:19:24;;;;;;;;;;;5.90;99.90;;;;;;5518339;25;20264;-64
2024/05/06 00:21:49;;;;;;;;;;;5.90;99.90;;;;;;5517119;26;19928;-64
2024/05/06 00:24:15;;;;;;;;;;;5.80;99.90;;;;;;5519350;25;20456;-64
2024/05/06 00:26:42;;;;;;;;;;;5.80;99.90;;;;;;5517720;25;20371;-65
2024/05/06 00:29:07;;;;;;;;;;;5.70;99.90;;;;;;5516373;26;19942;-65
2024/05/06 00:31:33;;;;;;;;;;;5.70;99.90;;;;;;5517691;26;20374;-64
2024/05/06 00:33:59;;;;;;;;;;;5.70;99.90;;;;;;5518707;25;19943;-64
2024/05/06 00:36:24;;;;;;;;;;;5.80;99.90;;;;;;5518804;26;20467;-65
2024/05/06 00:38:50;;;;;;;;;;;5.80;99.90;;;;;;5513617;26;19951;-64
2024/05/06 00:41:15;;;;;;;;;;;5.80;99.90;;;;;;5518181;25;19946;-64
2024/05/06 00:43:41;;;;;;;;;;;5.70;99.90;;;;;;5517172;26;19947;-65
2024/05/06 00:46:07;;;;;;;;;;;5.60;99.90;;;;;;5517223;26;19935;-64
2024/05/06 00:48:33;;;;;;;;;;;5.60;99.90;;;;;;5518329;26;19928;-65
2024/05/06 00:50:59;;;;;;;;;;;5.60;99.90;;;;;;5504344;25;20338;-65
2024/05/06 00:53:26;;;;;;;;;;;5.60;99.90;;;;;;5514417;26;19934;-65
2024/05/06 00:55:51;;;;;;;;;;;5.60;99.90;;;;;;5518451;26;20275;-65
2024/05/06 00:58:18;;;;;;;;;;;5.60;99.90;;;;;;5518567;25;19959;-64
2024/05/06 01:00:44;;;;;;;;;;;5.50;99.90;;;;;;5518681;26;19936;-65
2024/05/06 01:03:10;;;;;;;;;;;5.50;99.90;;;;;;5516355;26;20359;-64
2024/05/06 01:05:35;;;;;;;;;;;5.50;99.90;;;;;;5509721;26;19979;-65
2024/05/06 01:08:01;;;;;;;;;;;5.50;99.90;;;;;;5515729;25;19935;-64
2024/05/06 01:10:27;;;;;;;;;;;5.40;99.90;;;;;;5514343;26;20388;-64
2024/05/06 01:12:52;;;;;;;;;;;5.40;99.90;;;;;;5519387;26;19927;-65
2024/05/06 01:15:18;;;;;;;;;;;5.40;99.90;;;;;;5517352;25;19927;-65
2024/05/06 01:17:44;;;;;;;;;;;5.40;99.90;;;;;;5511716;26;19939;-65
2024/05/06 01:20:09;;;;;;;;;;;5.40;99.90;;;;;;5518952;26;19927;-64
2024/05/06 01:22:48;;;;;;;;;;;5.40;99.90;;;;;;5514856;26;19927;-64
2024/05/06 01:25:14;;;;;;;;;;;5.30;99.90;;;;;;5517802;25;20387;-64
2024/05/06 01:27:40;;;;;;;;;;;6.10;99.90;;;;;;5509103;25;19935;-64
2024/05/06 01:30:06;;;;;;;;;;;5.30;99.90;;;;;;5518369;26;20370;-65
2024/05/06 01:32:32;;;;;;;;;;;5.40;99.90;;;;;;5518164;26;19935;-65
2024/05/06 01:34:57;;;;;;;;;;;5.50;99.90;;;;;;5518178;26;20291;-64
2024/05/06 01:37:23;;;;;;;;;;;5.30;99.90;;;;;;5512411;25;19939;-64
2024/05/06 01:39:49;;;;;;;;;;;5.60;99.90;;;;;;5518638;26;19927;-64
2024/05/06 01:42:14;;;;;;;;;;;5.40;99.90;;;;;;5517807;25;19956;-64
2024/05/06 01:44:40;;;;;;;;;;;5.40;99.90;;;;;;5511505;26;19927;-64
2024/05/06 01:47:05;;;;;;;;;;;5.40;99.90;;;;;;5516195;26;20290;-65
2024/05/06 01:49:31;;;;;;;;;;;5.30;99.90;;;;;;5508206;25;19934;-65
2024/05/06 01:51:57;;;;;;;;;;;5.30;99.90;;;;;;5510908;25;19928;-64
2024/05/06 01:54:23;;;;;;;;;;;5.20;99.90;;;;;;5511242;26;20383;-64
2024/05/06 01:56:48;;;;;;;;;;;5.10;99.90;;;;;;5517469;26;19958;-64
2024/05/06 01:59:14;;;;;;;;;;;5.00;99.90;;;;;;5518086;26;20356;-65
2024/05/06 02:01:42;;;;;;;;;;;5.00;99.90;;;;;;5516523;25;19927;-64
2024/05/06 02:04:07;;;;;;;;;;;4.90;99.90;;;;;;5517504;26;19928;-65
2024/05/06 02:06:33;;;;;;;;;;;4.90;99.90;;;;;;5520286;26;19934;-65
2024/05/06 02:08:58;;;;;;;;;;;4.90;99.90;;;;;;5520870;25;19943;-65
2024/05/06 02:11:24;;;;;;;;;;;4.90;99.90;;;;;;5506109;25;19928;-65
2024/05/06 02:13:50;;;;;;;;;;;4.90;99.90;;;;;;5519477;26;20718;-64
2024/05/06 02:16:15;;;;;;;;;;;4.90;99.90;;;;;;5510877;26;19951;-65
2024/05/06 02:18:41;;;;;;;;;;;4.80;99.90;;;;;;5519360;25;19934;-65
2024/05/06 02:21:06;;;;;;;;;;;4.80;99.90;;;;;;5517039;25;20423;-65
2024/05/06 02:23:32;;;;;;;;;;;4.80;99.90;;;;;;5509067;26;19928;-64
2024/05/06 02:25:57;;;;;;;;;;;4.80;99.90;;;;;;5515764;26;19938;-65
2024/05/06 02:28:24;;;;;;;;;;;4.70;99.90;;;;;;5520835;26;20378;-65
2024/05/06 02:30:50;;;;;;;;;;;4.70;99.90;;;;;;5514687;25;19928;-65
2024/05/06 02:33:15;;;;;;;;;;;4.70;99.90;;;;;;5511103;26;19928;-65
2024/05/06 02:35:41;;;;;;;;;;;4.70;99.90;;;;;;5505263;26;19927;-65
2024/05/06 02:38:07;;;;;;;;;;;4.60;99.90;;;;;;5521011;26;19927;-64
2024/05/06 02:40:32;;;;;;;;;;;4.60;99.90;;;;;;5519027;25;20185;-64
2024/05/06 02:42:58;;;;;;;;;;;4.60;99.90;;;;;;5514901;25;19928;-65
2024/05/06 02:45:23;;;;;;;;;;;4.60;99.90;;;;;;5520873;26;19943;-64
2024/05/06 02:47:49;;;;;;;;;;;4.60;99.90;;;;;;5505506;26;19927;-64
2024/05/06 02:50:14;;;;;;;;;;;4.50;99.90;;;;;;5514076;26;19931;-64
2024/05/06 02:52:40;;;;;;;;;;;4.50;99.90;;;;;;5519060;25;19927;-64
2024/05/06 02:55:06;;;;;;;;;;;4.40;99.90;;;;;;5519251;26;19944;-64
2024/05/06 02:57:31;;;;;;;;;;;4.50;99.90;;;;;;5508154;26;19972;-64
2024/05/06 02:59:57;;;;;;;;;;;4.50;99.90;;;;;;5516033;25;19936;-64
2024/05/06 03:02:23;;;;;;;;;;;4.60;99.90;;;;;;5513071;26;19951;-64
2024/05/06 03:04:49;;;;;;;;;;;4.60;99.90;;;;;;5510635;26;20009;-64
2024/05/06 03:07:15;;;;;;;;;;;4.70;99.90;;;;;;5520463;26;20198;-64
2024/05/06 03:09:42;;;;;;;;;;;4.80;99.90;;;;;;5516100;25;20099;-64
2024/05/06 03:12:07;;;;;;;;;;;4.80;99.90;;;;;;5514394;26;19935;-65
2024/05/06 03:14:33;;;;;;;;;;;4.80;99.90;;;;;;5513357;26;19928;-64
2024/05/06 03:16:58;;;;;;;;;;;4.90;99.90;;;;;;5513823;26;19927;-64
2024/05/06 03:19:24;;;;;;;;;;;4.90;99.90;;;;;;5519804;25;20010;-64
2024/05/06 03:21:49;;;;;;;;;;;4.90;99.90;;;;;;5514899;25;19935;-65
2024/05/06 03:24:15;;;;;;;;;;;4.90;99.90;;;;;;5507309;26;19940;-65
2024/05/06 03:27:00;;;;;;;;;;;4.90;99.90;;;;;;5488520;26;19992;-65
2024/05/06 03:29:27;;;;;;;;;;;4.90;99.90;;;;;;5519392;25;19955;-64
2024/05/06 03:31:52;;;;;;;;;;;4.90;99.90;;;;;;5520366;26;19934;-65
2024/05/06 03:34:18;;;;;;;;;;;4.80;99.90;;;;;;5519859;26;19935;-65
2024/05/06 03:36:44;;;;;;;;;;;4.80;99.90;;;;;;5519436;26;21184;-64
2024/05/06 03:39:11;;;;;;;;;;;4.70;99.90;;;;;;5516713;25;19939;-65
2024/05/06 03:41:37;;;;;;;;;;;4.70;99.90;;;;;;5497406;25;19927;-65
2024/05/06 03:44:12;;;;;;;;;;;4.70;99.90;;;;;;5504953;26;19936;-64
2024/05/06 03:46:39;;;;;;;;;;;4.70;99.90;;;;;;5510604;26;19927;-65
2024/05/06 03:49:05;;;;;;;;;;;4.80;99.90;;;;;;5519932;26;19934;-65
2024/05/06 03:51:30;;;;;;;;;;;4.80;99.90;;;;;;5517367;25;19939;-65
2024/05/06 03:53:56;;;;;;;;;;;4.80;99.90;;;;;;5513291;26;20267;-65
2024/05/06 03:56:42;;;;;;;;;;;4.80;99.90;;;;;;5485753;26;19932;-65
2024/05/06 03:59:08;;;;;;;;;;;4.80;99.90;;;;;;5519600;25;19928;-65
2024/05/06 04:01:33;;;;;;;;;;;4.80;99.90;;;;;;5509932;25;20004;-64
2024/05/06 04:03:59;;;;;;;;;;;4.70;99.90;;;;;;5497217;26;19955;-65
2024/05/06 04:06:25;;;;;;;;;;;4.70;99.90;;;;;;5514159;26;19927;-65
2024/05/06 04:08:51;;;;;;;;;;;4.70;99.90;;;;;;5517221;26;19995;-65
2024/05/06 04:11:17;;;;;;;;;;;4.70;99.90;;;;;;5517851;25;19927;-65
2024/05/06 04:13:42;;;;;;;;;;;4.70;99.90;;;;;;5512013;26;19934;-65
2024/05/06 04:16:08;;;;;;;;;;;4.70;99.90;;;;;;5518783;26;19955;-65
2024/05/06 04:18:34;;;;;;;;;;;4.70;99.90;;;;;;5515763;25;19935;-65
2024/05/06 04:20:59;;;;;;;;;;;4.70;99.90;;;;;;5513553;25;19977;-65
2024/05/06 04:28:54;;;;;;;;;;;4.80;99.90;;;;;;5511772;26;19927;-64
2024/05/06 04:31:20;;;;;;;;;;;4.90;99.90;;;;;;5518413;25;19935;-65
2024/05/06 04:33:46;;;;;;;;;;;5.10;99.90;;;;;;5512624;26;19927;-65
2024/05/06 04:36:11;;;;;;;;;;;5.20;99.90;;;;;;5515999;26;20326;-65
2024/05/06 04:38:37;;;;;;;;;;;5.30;99.90;;;;;;5508152;25;19932;-65
2024/05/06 04:41:03;;;;;;;;;;;5.30;99.90;;;;;;5519154;26;19935;-65
2024/05/06 04:43:29;;;;;;;;;;;5.40;99.90;;;;;;5515209;25;20000;-65
2024/05/06 04:45:54;;;;;;;;;;;5.40;99.90;;;;;;5515602;26;20372;-65
2024/05/06 04:48:20;;;;;;;;;;;5.50;99.90;;;;;;5507696;26;19936;-65
2024/05/06 04:50:45;;;;;;;;;;;5.60;99.90;;;;;;5516771;25;19964;-65
2024/05/06 04:53:11;;;;;;;;;;;5.70;99.90;;;;;;5501379;26;19939;-65
2024/05/06 04:55:41;;;;;;;;;;;6.00;99.90;;;;;;5503388;26;19928;-65
2024/05/06 04:58:07;;;;;;;;;;;6.40;99.90;;;;;;5499378;25;19953;-65
2024/05/06 05:00:32;;;;;;;;;;;6.70;99.90;;;;;;5505673;26;20080;-65
2024/05/06 05:02:59;;;;;;;;;;;7.00;99.90;;;;;;5514477;26;20439;-65
2024/05/06 05:05:25;;;;;;;;;;;7.40;99.90;;;;;;5477583;26;19935;-65
2024/05/06 05:07:51;;;;;;;;;;;8.00;99.90;;;;;;5515514;25;19979;-65
2024/05/06 05:10:16;;;;;;;;;;;8.60;99.90;;;;;;5508353;26;19927;-65
2024/05/06 05:12:42;;;;;;;;;;;9.70;99.90;;;;;;5516426;26;19927;-65
2024/05/06 05:15:08;;;;;;;;;;;10.90;99.90;;;;;;5513459;25;19928;-65
2024/05/06 05:17:33;;;;;;;;;;;12.10;99.90;;;;;;5513207;26;19935;-65
2024/05/06 05:19:59;;;;;;;;;;;13.20;99.90;;;;;;5518457;26;19934;-65
2024/05/06 05:22:25;;;;;;;;;;;14.30;99.90;;;;;;5504864;25;19928;-66
2024/05/06 05:24:50;;;;;;;;;;;15.20;99.90;;;;;;5508575;26;19940;-66
2024/05/06 05:27:17;;;;;;;;;;;16.00;99.90;;;;;;5505400;26;19934;-66
2024/05/06 05:29:44;;;;;;;;;;;16.80;99.90;;;;;;5510542;25;19933;-66
2024/05/06 05:32:10;;;;;;;;;;;17.20;99.90;;;;;;5503972;26;20327;-66
2024/05/06 05:34:35;;;;;;;;;;;17.80;99.90;;;;;;5501796;26;19936;-66
2024/05/06 05:37:01;;;;;;;;;;;18.30;99.90;;;;;;5515116;26;19927;-66
2024/05/06 05:39:27;;;;;;;;;;;18.70;99.90;;;;;;5513759;25;19990;-66
2024/05/06 05:41:52;;;;;;;;;;;19.30;99.90;;;;;;5518142;25;20287;-66
2024/05/06 05:44:18;;;;;;;;;;;19.70;99.90;;;;;;5519613;26;19927;-66
2024/05/06 05:46:43;;;;;;;;;;;19.90;99.90;;;;;;5520065;26;19927;-66
2024/05/06 05:49:09;;;;;;;;;;;20.30;99.90;;;;;;5521415;26;19939;-67
2024/05/06 05:51:35;;;;;;;;;;;20.40;99.90;;;;;;5505372;25;19927;-68
2024/05/06 05:54:00;;;;;;;;;;;20.60;99.90;;;;;;5521908;26;20271;-67
2024/05/06 05:56:26;;;;;;;;;;;20.70;99.80;;;;;;5516157;26;19928;-67
2024/05/06 05:58:51;;;;;;;;;;;20.90;98.30;;;;;;5516006;25;19963;-67
2024/05/06 06:01:17;;;;;;;;;;;21.30;99.40;;;;;;5521828;26;19934;-67
2024/05/06 06:03:43;;;;;;;;;;;21.30;97.20;;;;;;5520444;26;20256;-66
2024/05/06 06:06:08;;;;;;;;;;;21.60;97.90;;;;;;5522071;26;19934;-67
2024/05/06 06:08:34;;;;;;;;;;;21.90;97.20;;;;;;5514670;25;19931;-67
2024/05/06 06:10:59;;;;;;;;;;;22.20;97.00;;;;;;5515790;26;20290;-67
2024/05/06 06:13:25;;;;;;;;;;;22.70;97.30;;;;;;5516115;26;19934;-67
2024/05/06 06:15:50;;;;;;;;;;;22.90;95.50;;;;;;5507362;26;19934;-67
2024/05/06 06:18:16;;;;;;;;;;;23.10;95.10;;;;;;5520447;25;19995;-67
2024/05/06 06:20:41;;;;;;;;;;;23.40;95.40;;;;;;5518472;26;19928;-67
2024/05/06 06:23:07;;;;;;;;;;;23.60;93.90;;;;;;5514165;26;19999;-67
2024/05/06 06:25:33;;;;;;;;;;;23.90;93.30;;;;;;5519829;25;19928;-67
2024/05/06 06:27:58;;;;;;;;;;;24.00;92.60;;;;;;5512776;26;20341;-67
2024/05/06 06:30:24;;;;;;;;;;;24.30;93.90;;;;;;5517786;26;19928;-67
2024/05/06 06:32:50;;;;;;;;;;;24.30;91.50;;;;;;5520109;25;19934;-67
2024/05/06 06:35:16;;;;;;;;;;;24.30;92.20;;;;;;5520962;26;20397;-67
2024/05/06 06:37:41;;;;;;;;;;;24.30;92.30;;;;;;5520888;26;19935;-67
2024/05/06 06:40:07;;;;;;;;;;;24.30;92.50;;;;;;5520903;26;19934;-67
2024/05/06 06:42:34;;;;;;;;;;;24.00;92.00;;;;;;5511642;25;19927;-67
2024/05/06 06:45:00;;;;;;;;;;;24.00;92.70;;;;;;5509882;26;19927;-67
2024/05/06 06:47:25;;;;;;;;;;;24.20;92.80;;;;;;5521008;26;19928;-67
2024/05/06 06:49:51;;;;;;;;;;;24.20;92.80;;;;;;5520386;26;19994;-67
2024/05/06 06:52:17;;;;;;;;;;;24.10;93.20;;;;;;5519447;25;20429;-67
2024/05/06 06:54:42;;;;;;;;;;;24.40;92.10;;;;;;5515235;26;19935;-67
2024/05/06 06:57:08;;;;;;;;;;;24.80;92.40;;;;;;5517678;26;19934;-67
2024/05/06 06:59:33;;;;;;;;;;;25.10;91.70;;;;;;5508168;25;20069;-67
2024/05/06 07:01:59;;;;;;;;;;;25.00;91.50;;;;;;5521435;26;20129;-67
2024/05/06 07:04:24;;;;;;;;;;;24.90;92.80;;;;;;5520572;26;19927;-67
2024/05/06 07:06:50;;;;;;;;;;;25.20;91.20;;;;;;5517283;26;19934;-67
2024/05/06 07:09:16;;;;;;;;;;;25.60;91.60;;;;;;5513557;25;20364;-67
2024/05/06 07:11:41;;;;;;;;;;;26.20;92.10;;;;;;5511906;26;19928;-67
2024/05/06 07:14:07;;;;;;;;;;;26.60;90.30;;;;;;5521007;26;20371;-67
2024/05/06 07:16:32;;;;;;;;;;;27.00;90.30;;;;;;5509269;26;19934;-67
2024/05/06 07:18:58;;;;;;;;;;;27.20;88.00;;;;;;5516307;25;20351;-67
2024/05/06 07:21:23;;;;;;;;;;;27.50;87.90;;;;;;5519730;26;19935;-68
2024/05/06 07:23:49;;;;;;;;;;;27.60;88.70;;;;;;5516090;26;19928;-68
2024/05/06 07:26:15;;;;;;;;;;;27.80;88.10;;;;;;5513009;26;19934;-68
2024/05/06 07:28:41;;;;;;;;;;;27.90;87.30;;;;;;5512917;25;19996;-67
2024/05/06 07:31:07;;;;;;;;;;;27.90;85.80;;;;;;5519814;26;20003;-67
2024/05/06 07:33:33;;;;;;;;;;;27.90;85.70;;;;;;5514986;26;19994;-67
2024/05/06 07:35:59;;;;;;;;;;;27.90;84.50;;;;;;5517163;25;19947;-67
2024/05/06 07:38:25;;;;;;;;;;;27.80;84.40;;;;;;5519907;25;19927;-67
2024/05/06 07:40:50;;;;;;;;;;;27.60;81.50;;;;;;5519668;26;20391;-67
2024/05/06 07:43:16;;;;;;;;;;;27.50;83.50;;;;;;5512048;25;19976;-67
2024/05/06 07:45:43;;;;;;;;;;;27.20;82.30;;;;;;5508010;26;20018;-67
2024/05/06 07:48:08;;;;;;;;;;;27.10;84.30;;;;;;5517404;25;20000;-67
2024/05/06 07:50:34;;;;;;;;;;;26.80;85.10;;;;;;5511014;25;20324;-67
2024/05/06 07:53:00;;;;;;;;;;;26.40;83.50;;;;;;5520764;26;20379;-67
2024/05/06 07:55:26;;;;;;;;;;;25.90;84.40;;;;;;5519993;26;19928;-67
2024/05/06 07:57:51;;;;;;;;;;;25.50;85.00;;;;;;5506782;25;19995;-67
2024/05/06 08:00:18;;;;;;;;;;;25.00;83.80;;;;;;5517619;26;19928;-67
2024/05/06 08:02:44;;;;;;;;;;;24.70;87.30;;;;;;5518770;26;19934;-67
2024/05/06 08:05:09;;;;;;;;;;;24.50;87.10;;;;;;5512435;26;19927;-67
2024/05/06 08:07:35;;;;;;;;;;;24.20;90.00;;;;;;5515196;25;20194;-68
2024/05/06 08:10:00;;;;;;;;;;;24.00;90.10;;;;;;5502278;26;19928;-67
2024/05/06 08:12:26;;;;;;;;;;;23.80;91.60;;;;;;5519597;26;19927;-67
2024/05/06 08:14:51;;;;;;;;;;;23.80;90.00;;;;;;5512556;26;19995;-67
2024/05/06 08:17:18;;;;;;;;;;;23.60;90.20;;;;;;5508656;25;20370;-67
2024/05/06 08:19:44;;;;;;;;;;;23.40;92.50;;;;;;5518425;26;19927;-67
2024/05/06 08:22:09;;;;;;;;;;;23.40;93.00;;;;;;5516456;26;19934;-68
2024/05/06 08:24:35;;;;;;;;;;;23.60;91.20;;;;;;5514417;25;19928;-68
2024/05/06 08:27:00;;;;;;;;;;;23.80;92.20;;;;;;5513262;26;19931;-68
2024/05/06 08:29:26;;;;;;;;;;;23.90;90.40;;;;;;5519758;26;19934;-68
2024/05/06 08:31:51;;;;;;;;;;;24.10;90.60;;;;;;5518163;25;19935;-68
2024/05/06 08:34:18;;;;;;;;;;;24.10;90.90;;;;;;5518356;26;20069;-68
2024/05/06 08:36:43;;;;;;;;;;;24.10;91.60;;;;;;5507255;26;20362;-68
2024/05/06 08:39:09;;;;;;;;;;;24.10;91.90;;;;;;5513444;26;19928;-68
2024/05/06 08:41:34;;;;;;;;;;;24.00;91.60;;;;;;5517216;25;19927;-67
2024/05/06 08:44:02;;;;;;;;;;;24.20;91.00;;;;;;5513413;26;19932;-68
2024/05/06 08:46:29;;;;;;;;;;;24.30;92.20;;;;;;5518995;26;19935;-68
2024/05/06 08:48:55;;;;;;;;;;;24.40;90.40;;;;;;5519521;26;19934;-67
2024/05/06 08:51:21;;;;;;;;;;;24.30;87.30;;;;;;5511689;25;19928;-68
2024/05/06 08:53:46;;;;;;;;;;;24.20;88.40;;;;;;5516725;26;19956;-68
2024/05/06 08:56:12;;;;;;;;;;;24.10;90.00;;;;;;5517634;25;19935;-67
2024/05/06 08:58:40;;;;;;;;;;;24.00;90.40;;;;;;5517063;25;19934;-68
2024/05/06 09:01:05;;;;;;;;;;;23.90;91.70;;;;;;5519084;26;19979;-68
2024/05/06 09:03:31;;;;;;;;;;;24.10;86.90;;;;;;5518268;26;19931;-68
2024/05/06 09:05:57;;;;;;;;;;;24.10;90.00;;;;;;5504653;26;19935;-67
2024/05/06 09:08:22;;;;;;;;;;;24.10;86.50;;;;;;5504738;25;20001;-67
2024/05/06 09:10:49;;;;;;;;;;;23.80;88.70;;;;;;5510482;26;19959;-67
2024/05/06 09:13:19;;;;;;;;;;;23.60;91.50;;;;;;5510252;26;19928;-67
2024/05/06 09:15:45;;;;;;;;;;;23.50;92.30;;;;;;5513561;26;19938;-67
2024/05/06 09:18:10;;;;;;;;;;;23.60;91.00;;;;;;5516136;25;20003;-67
2024/05/06 09:20:36;;;;;;;;;;;23.50;90.30;;;;;;5518024;26;19932;-67
2024/05/06 09:23:01;;;;;;;;;;;23.20;90.40;;;;;;5522975;26;20370;-67
2024/05/06 09:25:27;;;;;;;;;;;23.10;91.80;;;;;;5521289;25;19927;-67
2024/05/06 09:27:53;;;;;;;;;;;23.00;90.70;;;;;;5509366;26;20328;-67
2024/05/06 09:30:19;;;;;;;;;;;22.90;90.30;;;;;;5522251;26;19999;-67
2024/05/06 09:32:47;;;;;;;;;;;23.00;92.70;;;;;;5517824;26;19935;-67
2024/05/06 09:35:15;;;;;;;;;;;22.90;91.60;;;;;;5514725;25;19938;-67
2024/05/06 09:37:40;;;;;;;;;;;22.80;91.00;;;;;;5501425;26;20382;-68
2024/05/06 09:40:09;;;;;;;;;;;22.90;92.00;;;;;;5512690;26;19959;-67
2024/05/06 09:42:42;;;;;;;;;;;22.90;90.60;;;;;;5520004;25;20016;-67
2024/05/06 09:45:08;;;;;;;;;;;22.70;92.50;;;;;;5516621;26;19931;-67
2024/05/06 09:47:34;;;;;;;;;;;22.50;91.50;;;;;;5515166;26;19927;-67
2024/05/06 09:50:01;;;;;;;;;;;22.50;91.40;;;;;;5516047;26;19934;-66
2024/05/06 09:52:29;;;;;;;;;;;22.60;93.20;;;;;;5507283;25;19935;-67
2024/05/06 09:54:55;;;;;;;;;;;22.90;93.40;;;;;;5503132;26;19935;-67
2024/05/06 09:57:20;;;;;;;;;;;22.90;91.60;;;;;;5505305;26;19964;-67
2024/05/06 09:59:46;;;;;;;;;;;23.10;92.10;;;;;;5517113;25;19927;-67
2024/05/06 10:02:16;;;;;;;;;;;23.10;87.00;;;;;;5522085;26;20465;-67
2024/05/06 10:04:41;;;;;;;;;;;23.10;90.70;;;;;;5506145;26;19937;-67
2024/05/06 10:07:08;;;;;;;;;;;23.00;90.80;;;;;;5514842;25;20259;-67
2024/05/06 10:09:34;;;;;;;;;;;23.00;91.40;;;;;;5500263;26;19935;-67
2024/05/06 10:11:59;;;;;;;;;;;22.90;90.60;;;;;;5521975;26;19927;-67
2024/05/06 10:14:25;;;;;;;;;;;23.00;91.60;;;;;;5510747;26;20009;-67
2024/05/06 10:16:51;;;;;;;;;;;22.90;91.00;;;;;;5518599;25;19995;-67
2024/05/06 10:19:17;;;;;;;;;;;22.80;90.40;;;;;;5511345;26;19939;-67
2024/05/06 10:21:43;;;;;;;;;;;22.70;90.60;;;;;;5503651;26;20380;-67
2024/05/06 10:24:11;;;;;;;;;;;22.70;89.20;;;;;;5496436;26;19944;-67
2024/05/06 10:26:48;;;;;;;;;;;22.70;90.60;;;;;;5506307;25;19946;-67
2024/05/06 10:29:15;;;;;;;;;;;22.60;90.90;;;;;;5512256;26;19935;-67
2024/05/06 10:31:50;;;;;;;;;;;22.50;91.10;;;;;;5518721;25;19927;-66
2024/05/06 10:34:16;;;;;;;;;;;22.40;90.70;;;;;;5516334;25;19935;-66
2024/05/06 10:36:44;;;;;;;;;;;22.50;92.20;;;;;;5520422;25;20009;-66
2024/05/06 10:39:12;;;;;;;;;;;22.60;93.10;;;;;;5515247;26;20187;-66
2024/05/06 10:41:40;;;;;;;;;;;22.70;92.20;;;;;;5518990;25;19934;-65
2024/05/06 10:44:07;;;;;;;;;;;22.60;93.30;;;;;;5521238;26;19943;-66
2024/05/06 10:46:32;;;;;;;;;;;22.70;93.50;;;;;;5509741;26;19927;-66
2024/05/06 10:49:01;;;;;;;;;;;22.90;95.50;;;;;;5509277;26;19939;-66
2024/05/06 10:51:27;;;;;;;;;;;22.90;93.20;;;;;;5516824;25;19957;-66
2024/05/06 10:53:53;;;;;;;;;;;23.00;93.40;;;;;;5510530;26;19936;-66
2024/05/06 10:56:19;;;;;;;;;;;22.90;91.80;;;;;;5521320;26;19935;-66
2024/05/06 10:58:45;;;;;;;;;;;22.80;91.40;;;;;;5508068;25;19934;-66
2024/05/06 11:01:10;;;;;;;;;;;22.60;92.30;;;;;;5511651;26;19936;-66
2024/05/06 11:03:37;;;;;;;;;;;22.50;92.90;;;;;;5512631;26;19934;-66
2024/05/06 11:06:04;;;;;;;;;;;22.30;90.30;;;;;;5518274;26;20171;-66
2024/05/06 11:08:30;;;;;;;;;;;22.20;91.40;;;;;;5512543;25;19959;-66
2024/05/06 11:10:55;;;;;;;;;;;22.20;91.20;;;;;;5520403;26;19956;-66
2024/05/06 11:13:21;;;;;;;;;;;22.10;91.70;;;;;;5508119;26;19927;-66
2024/05/06 11:15:47;;;;;;;;;;;22.20;94.10;;;;;;5499221;25;19934;-66
2024/05/06 11:18:13;;;;;;;;;;;22.30;93.20;;;;;;5500514;26;19928;-66
2024/05/06 11:20:38;;;;;;;;;;;22.20;90.60;;;;;;5520064;26;20341;-66
2024/05/06 11:23:05;;;;;;;;;;;22.30;90.20;;;;;;5502336;26;19931;-66
2024/05/06 11:25:32;;;;;;;;;;;22.40;91.50;;;;;;5510355;25;19981;-66
2024/05/06 11:27:57;;;;;;;;;;;22.40;85.60;;;;;;5513630;26;19934;-66
2024/05/06 11:30:23;;;;;;;;;;;22.30;90.60;;;;;;5511338;26;19932;-65
2024/05/06 11:32:48;;;;;;;;;;;22.30;92.80;;;;;;5519142;25;19931;-66
2024/05/06 11:35:14;;;;;;;;;;;22.20;90.70;;;;;;5520393;26;19943;-65
2024/05/06 11:37:40;;;;;;;;;;;22.10;91.00;;;;;;5509252;26;19935;-65
2024/05/06 11:40:06;;;;;;;;;;;22.00;91.20;;;;;;5514572;25;20435;-66
2024/05/06 11:42:32;;;;;;;;;;;22.10;93.30;;;;;;5517181;25;19927;-64
2024/05/06 11:44:57;;;;;;;;;;;22.20;92.50;;;;;;5514316;26;19959;-66
2024/05/06 11:47:23;;;;;;;;;;;22.30;93.00;;;;;;5517045;26;19934;-65
2024/05/06 11:49:48;;;;;;;;;;;22.30;92.50;;;;;;5518877;25;19956;-66
2024/05/06 11:52:14;;;;;;;;;;;22.40;91.20;;;;;;5478098;26;19928;-66
2024/05/06 11:54:39;;;;;;;;;;;22.60;90.90;;;;;;5517338;26;19927;-65
2024/05/06 11:57:06;;;;;;;;;;;22.70;93.00;;;;;;5519289;26;19935;-66
2024/05/06 11:59:33;;;;;;;;;;;22.90;92.70;;;;;;5512112;25;19927;-65
2024/05/06 12:01:58;;;;;;;;;;;23.00;92.10;;;;;;5515002;26;19935;-66
2024/05/06 12:04:24;;;;;;;;;;;23.10;92.60;;;;;;5519436;26;20038;-66
2024/05/06 12:06:50;;;;;;;;;;;23.20;91.10;;;;;;5495838;26;19928;-66
2024/05/06 12:09:15;;;;;;;;;;;23.30;90.70;;;;;;5513719;25;19931;-65
2024/05/06 12:11:41;;;;;;;;;;;23.30;90.90;;;;;;5512259;26;19995;-65
2024/05/06 12:14:07;;;;;;;;;;;23.20;87.20;;;;;;5513639;26;19935;-65
2024/05/06 12:16:33;;;;;;;;;;;23.30;90.10;;;;;;5508118;25;19936;-65
2024/05/06 12:18:58;;;;;;;;;;;23.20;91.30;;;;;;5502262;26;19928;-65
2024/05/06 12:21:24;;;;;;;;;;;23.00;91.00;;;;;;5514272;26;19935;-65
2024/05/06 12:23:49;;;;;;;;;;;22.90;91.60;;;;;;5518941;26;19932;-65
2024/05/06 12:26:15;;;;;;;;;;;22.70;90.90;;;;;;5518073;25;19927;-65
2024/05/06 12:28:41;;;;;;;;;;;22.80;90.30;;;;;;5513685;26;20263;-65
2024/05/06 12:31:06;;;;;;;;;;;22.90;91.10;;;;;;5511135;26;20280;-66
2024/05/06 12:33:32;;;;;;;;;;;23.00;89.50;;;;;;5518324;25;19980;-65
2024/05/06 12:35:57;;;;;;;;;;;23.20;92.40;;;;;;5512145;26;19927;-65
2024/05/06 12:38:24;;;;;;;;;;;23.30;91.10;;;;;;5516256;26;20419;-65
2024/05/06 12:40:49;;;;;;;;;;;23.40;87.40;;;;;;5512751;26;19935;-65
2024/05/06 12:43:17;;;;;;;;;;;23.40;89.60;;;;;;5504417;25;19928;-65
2024/05/06 12:45:43;;;;;;;;;;;23.40;91.50;;;;;;5509028;26;20320;-66
2024/05/06 12:48:08;;;;;;;;;;;23.20;90.50;;;;;;5500505;26;19936;-66
2024/05/06 12:50:34;;;;;;;;;;;22.90;90.90;;;;;;5509103;26;19995;-65
2024/05/06 12:52:59;;;;;;;;;;;22.90;91.80;;;;;;5513757;25;20386;-65
2024/05/06 12:55:25;;;;;;;;;;;23.10;90.00;;;;;;5513031;26;19927;-66
2024/05/06 12:57:51;;;;;;;;;;;23.20;90.20;;;;;;5506667;25;19939;-66
2024/05/06 13:00:17;;;;;;;;;;;23.00;91.30;;;;;;5514199;26;19934;-65
2024/05/06 13:02:42;;;;;;;;;;;22.80;91.60;;;;;;5514703;26;19931;-66
2024/05/06 13:05:09;;;;;;;;;;;22.70;91.10;;;;;;5506535;26;20375;-65
2024/05/06 13:07:35;;;;;;;;;;;22.70;92.10;;;;;;5511394;25;19928;-65
2024/05/06 13:10:01;;;;;;;;;;;22.40;90.40;;;;;;5519445;26;19935;-65
2024/05/06 13:12:27;;;;;;;;;;;22.30;93.20;;;;;;5517838;26;19935;-66
2024/05/06 13:14:52;;;;;;;;;;;22.20;94.10;;;;;;5502095;25;19935;-68
2024/05/06 13:17:19;;;;;;;;;;;22.10;92.70;;;;;;5514200;26;20370;-66
2024/05/06 13:19:44;;;;;;;;;;;22.20;93.70;;;;;;5514939;26;20267;-66
2024/05/06 13:22:10;;;;;;;;;;;22.20;92.80;;;;;;5516267;25;19928;-66
2024/05/06 13:24:35;;;;;;;;;;;22.20;93.40;;;;;;5506045;26;19928;-66
2024/05/06 13:27:01;;;;;;;;;;;22.20;93.30;;;;;;5501256;26;19956;-66
2024/05/06 13:29:27;;;;;;;;;;;22.10;93.10;;;;;;5507860;25;20395;-66
2024/05/06 13:31:52;;;;;;;;;;;22.00;93.20;;;;;;5502946;26;19996;-66
2024/05/06 13:34:18;;;;;;;;;;;21.90;95.00;;;;;;5518038;26;19927;-67
2024/05/06 13:36:43;;;;;;;;;;;21.90;93.50;;;;;;5511259;25;20287;-65
2024/05/06 13:39:10;;;;;;;;;;;21.90;93.60;;;;;;5517017;26;20367;-66
2024/05/06 13:41:35;;;;;;;;;;;22.00;93.70;;;;;;5509298;25;19935;-66
2024/05/06 13:44:01;;;;;;;;;;;22.20;92.50;;;;;;5518228;26;19935;-66
2024/05/06 13:46:27;;;;;;;;;;;22.20;91.80;;;;;;5512477;26;19928;-66
2024/05/06 13:48:52;;;;;;;;;;;22.20;93.00;;;;;;5507038;26;19943;-66
2024/05/06 13:51:18;;;;;;;;;;;22.20;93.10;;;;;;5502206;25;20003;-66
2024/05/06 13:53:43;;;;;;;;;;;22.10;93.50;;;;;;5509523;26;19975;-67
2024/05/06 13:56:10;;;;;;;;;;;22.20;94.10;;;;;;5517841;26;19998;-66
2024/05/06 13:58:35;;;;;;;;;;;22.20;93.00;;;;;;5504439;25;19939;-66
2024/05/06 14:01:02;;;;;;;;;;;22.30;94.00;;;;;;5511745;26;19928;-66
2024/05/06 14:03:28;;;;;;;;;;;22.20;92.80;;;;;;5519588;26;20343;-67
2024/05/06 14:05:55;;;;;;;;;;;22.10;93.60;;;;;;5514308;25;19935;-67
2024/05/06 14:08:20;;;;;;;;;;;22.00;94.20;;;;;;5521284;26;19931;-67
2024/05/06 14:10:46;;;;;;;;;;;22.10;94.30;;;;;;5521580;26;20000;-67
2024/05/06 14:13:12;;;;;;;;;;;22.10;94.00;;;;;;5521549;26;20388;-68
2024/05/06 14:15:37;;;;;;;;;;;22.10;93.70;;;;;;5518828;25;19927;-67
2024/05/06 14:18:03;;;;;;;;;;;22.10;93.90;;;;;;5514425;26;20279;-67
2024/05/06 14:20:29;;;;;;;;;;;22.00;93.60;;;;;;5515308;26;19935;-67